createdAt,value
2023-05-01T00:01:05.257Z,101440.56
2023-05-01T00:03:32.833Z,101437.81
2023-05-01T00:06:01.578Z,101441.56
2023-05-01T00:08:28.153Z,101423.97
2023-05-01T00:10:54.726Z,101430.84
2023-05-01T00:13:24.430Z,101403.56
2023-05-01T00:15:51.535Z,101415.63
2023-05-01T00:20:53.239Z,101403.56
2023-05-01T00:31:18.918Z,101395.22
2023-05-01T00:33:45.422Z,101391.25
2023-05-01T00:38:47.156Z,101338.44
2023-05-01T00:41:13.684Z,101375.22
2023-05-01T00:43:40.206Z,101387.41
2023-05-01T00:46:08.148Z,101360.41
2023-05-01T00:48:35.385Z,101329.94
2023-05-01T00:51:05.411Z,101375.63
2023-05-01T00:53:34.099Z,101364.78
2023-05-01T00:56:00.919Z,101368.06
2023-05-01T00:58:27.773Z,101352.97
2023-05-01T01:00:55.274Z,101362.56
2023-05-01T01:09:09.940Z,101352.91
2023-05-01T01:17:05.978Z,101348.94
2023-05-01T01:22:13.716Z,101326.59
2023-05-01T01:25:12.719Z,101320.84
2023-05-01T01:27:57.984Z,101328.91
2023-05-01T01:30:49.144Z,101331.41
2023-05-01T01:33:43.401Z,101324.53
2023-05-01T01:36:19.992Z,101322.22
2023-05-01T01:38:52.537Z,101308.75
2023-05-01T01:41:27.980Z,101318.38
2023-05-01T01:44:22.504Z,101317.94
2023-05-01T01:46:52.897Z,101310.16
2023-05-01T01:49:24.813Z,101314.38
2023-05-01T01:51:55.206Z,101308.66
2023-05-01T01:54:35.557Z,101299.75
2023-05-01T01:57:04.498Z,101308.38
2023-05-01T01:59:33.800Z,101292.63
2023-05-01T02:02:02.115Z,101296.03
2023-05-01T02:04:29.987Z,101292.34
2023-05-01T02:06:58.391Z,101269.00
2023-05-01T02:09:27.388Z,101281.50
2023-05-01T02:11:57.498Z,101287.41
2023-05-01T02:14:26.883Z,101275.47
2023-05-01T02:16:54.871Z,101274.00
2023-05-01T02:19:22.368Z,101270.94
2023-05-01T02:21:50.234Z,101259.06
2023-05-01T02:24:18.252Z,101264.13
2023-05-01T02:26:49.991Z,101262.75
2023-05-01T02:29:16.948Z,101265.63
2023-05-01T02:31:43.522Z,101269.19
2023-05-01T02:34:10.060Z,101248.22
2023-05-01T02:36:36.524Z,101259.19
2023-05-01T02:39:03.102Z,101256.44
2023-05-01T02:41:32.062Z,101258.50
2023-05-01T02:44:04.212Z,101254.53
2023-05-01T02:46:33.319Z,101234.66
2023-05-01T02:49:02.718Z,101243.59
2023-05-01T02:51:31.786Z,101237.41
2023-05-01T02:53:59.426Z,101238.91
2023-05-01T02:56:29.536Z,101228.06
2023-05-01T02:58:56.183Z,101221.63
2023-05-01T03:01:24.064Z,101221.38
2023-05-01T03:03:50.567Z,101222.31
2023-05-01T03:06:17.257Z,101220.41
2023-05-01T03:08:44.277Z,101213.53
2023-05-01T03:11:10.850Z,101218.88
2023-05-01T03:13:37.575Z,101220.25
2023-05-01T03:16:04.717Z,101216.41
2023-05-01T03:18:31.296Z,101202.00
2023-05-01T03:20:57.829Z,101204.75
2023-05-01T03:23:24.696Z,101194.88
2023-05-01T03:26:06.360Z,101128.16
2023-05-01T03:28:33.726Z,101202.94
2023-05-01T03:31:00.847Z,101195.81
2023-05-01T03:33:32.717Z,101177.88
2023-05-01T03:36:04.017Z,101137.75
2023-05-01T03:38:31.610Z,101184.72
2023-05-01T03:40:58.615Z,101187.63
2023-05-01T03:43:25.293Z,101177.63
2023-05-01T03:45:52.400Z,101184.03
2023-05-01T03:48:19.458Z,101186.66
2023-05-01T03:50:46.568Z,101156.75
2023-05-01T03:53:13.871Z,101168.13
2023-05-01T03:55:40.571Z,101173.78
2023-05-01T03:58:07.291Z,101176.88
2023-05-01T04:00:34.256Z,101172.66
2023-05-01T04:03:00.943Z,101170.75
2023-05-01T04:05:27.534Z,101172.78
2023-05-01T04:07:54.041Z,101166.59
2023-05-01T04:10:20.646Z,101162.19
2023-05-01T04:12:47.066Z,101159.06
2023-05-01T04:15:15.416Z,101161.09
2023-05-01T04:17:43.834Z,101153.84
2023-05-01T04:20:11.064Z,101165.34
2023-05-01T04:22:37.708Z,101154.78
2023-05-01T04:25:04.766Z,101153.00
2023-05-01T04:27:31.757Z,101153.94
2023-05-01T04:29:58.772Z,101156.25
2023-05-01T04:32:25.537Z,101149.53
2023-05-01T04:34:52.160Z,101149.66
2023-05-01T04:37:18.790Z,101147.16
2023-05-01T04:39:45.332Z,101148.25
2023-05-01T04:42:11.770Z,101155.78
2023-05-01T04:44:38.381Z,101152.38
2023-05-01T04:47:04.957Z,101146.84
2023-05-01T04:49:32.323Z,101148.19
2023-05-01T04:51:58.764Z,101150.69
2023-05-01T04:54:25.609Z,101151.22
2023-05-01T04:56:52.348Z,101153.09
2023-05-01T04:59:18.838Z,101160.78
2023-05-01T05:01:45.236Z,101159.53
2023-05-01T05:04:11.761Z,101144.81
2023-05-01T05:06:38.351Z,101152.47
2023-05-01T05:09:04.797Z,101154.78
2023-05-01T05:11:31.264Z,101157.19
2023-05-01T05:13:57.681Z,101148.78
2023-05-01T05:16:24.130Z,101149.00
2023-05-01T05:18:51.045Z,101137.44
2023-05-01T05:21:17.508Z,101150.53
2023-05-01T05:23:44.265Z,101149.28
2023-05-01T05:26:10.692Z,101146.38
2023-05-01T05:28:37.077Z,101146.28
2023-05-01T05:31:04.066Z,101152.09
2023-05-01T05:33:30.655Z,101156.09
2023-05-01T05:36:00.108Z,101152.91
2023-05-01T05:38:26.683Z,101150.00
2023-05-01T05:40:54.238Z,101157.44
2023-05-01T05:43:20.756Z,101153.31
2023-05-01T05:45:47.279Z,101149.59
2023-05-01T05:48:14.384Z,101146.09
2023-05-01T05:50:40.964Z,101143.06
2023-05-01T05:53:07.521Z,101140.19
2023-05-01T05:55:33.994Z,101117.25
2023-05-01T05:58:00.670Z,101123.84
2023-05-01T06:00:27.294Z,101137.03
2023-05-01T06:02:53.833Z,101132.94
2023-05-01T06:05:20.491Z,101137.06
2023-05-01T06:07:47.090Z,101138.19
2023-05-01T06:10:13.601Z,101140.81
2023-05-01T06:12:43.243Z,101140.50
2023-05-01T06:15:17.044Z,101127.22
2023-05-01T06:17:43.583Z,101130.34
2023-05-01T06:20:10.960Z,101126.56
2023-05-01T06:22:37.428Z,101127.88
2023-05-01T06:25:04.299Z,101136.22
2023-05-01T06:27:30.749Z,101128.69
2023-05-01T06:29:57.362Z,101122.78
2023-05-01T06:32:26.488Z,101129.00
2023-05-01T06:34:52.953Z,101101.00
2023-05-01T06:37:19.494Z,101119.50
2023-05-01T06:39:47.409Z,101129.44
2023-05-01T06:42:16.115Z,101134.97
2023-05-01T06:44:43.233Z,101118.91
2023-05-01T06:47:09.944Z,101119.19
2023-05-01T06:49:36.553Z,101128.97
2023-05-01T06:52:03.392Z,101123.69
2023-05-01T06:54:29.935Z,101122.97
2023-05-01T06:56:57.913Z,101119.34
2023-05-01T06:59:25.389Z,101125.44
2023-05-01T07:01:52.782Z,101122.16
2023-05-01T07:04:19.305Z,101120.69
2023-05-01T07:06:46.105Z,101112.00
2023-05-01T07:09:13.892Z,101117.72
2023-05-01T07:11:40.578Z,101116.91
2023-05-01T07:14:06.986Z,101101.69
2023-05-01T07:16:36.040Z,101106.59
2023-05-01T07:19:02.762Z,101080.06
2023-05-01T07:21:29.237Z,101118.34
2023-05-01T07:23:55.612Z,101114.97
2023-05-01T07:26:22.165Z,101117.78
2023-05-01T07:28:48.554Z,101123.41
2023-05-01T07:31:15.409Z,101122.19
2023-05-01T07:33:42.410Z,101119.16
2023-05-01T07:36:09.279Z,101109.44
2023-05-01T07:38:35.715Z,101106.63
2023-05-01T07:41:02.256Z,101106.88
2023-05-01T07:43:31.040Z,101108.19
2023-05-01T07:45:58.897Z,101111.91
2023-05-01T07:48:26.787Z,101111.91
2023-05-01T07:51:02.387Z,101094.84
2023-05-01T07:53:28.995Z,101098.09
2023-05-01T07:56:08.641Z,101101.06
2023-05-01T07:58:36.986Z,101101.94
2023-05-01T08:01:06.029Z,101100.09
2023-05-01T08:03:32.799Z,101103.06
2023-05-01T08:05:59.620Z,101092.50
2023-05-01T08:08:26.196Z,101098.88
2023-05-01T08:10:52.969Z,101098.34
2023-05-01T08:13:19.445Z,101101.09
2023-05-01T08:15:49.140Z,101096.25
2023-05-01T08:18:20.221Z,101089.06
2023-05-01T08:20:50.176Z,101096.06
2023-05-01T08:23:17.465Z,101094.31
2023-05-01T08:25:50.726Z,101102.31
2023-05-01T08:28:20.632Z,101090.34
2023-05-01T08:30:51.547Z,101086.09
2023-05-01T08:33:19.347Z,101081.44
2023-05-01T08:35:46.030Z,101084.34
2023-05-01T08:38:12.573Z,101078.47
2023-05-01T08:40:41.118Z,101086.00
2023-05-01T08:43:07.675Z,101080.09
2023-05-01T08:45:37.522Z,101073.94
2023-05-01T08:48:09.712Z,101086.13
2023-05-01T08:50:42.020Z,101080.16
2023-05-01T08:53:12.213Z,101085.03
2023-05-01T08:55:46.038Z,101070.09
2023-05-01T08:58:13.679Z,101076.19
2023-05-01T09:00:42.039Z,101079.63
2023-05-01T09:03:12.038Z,101066.56
2023-05-01T09:05:41.490Z,101062.47
2023-05-01T09:08:07.948Z,101074.09
2023-05-01T09:10:44.275Z,101063.28
2023-05-01T09:13:11.154Z,101052.53
2023-05-01T09:15:37.895Z,101050.47
2023-05-01T09:18:04.628Z,101054.78
2023-05-01T09:20:32.566Z,101053.19
2023-05-01T09:22:59.180Z,101052.59
2023-05-01T09:25:26.782Z,101044.41
2023-05-01T09:27:56.922Z,101033.81
2023-05-01T09:30:39.103Z,101048.06
2023-05-01T09:33:06.541Z,101046.78
2023-05-01T09:35:34.090Z,101042.28
2023-05-01T09:38:00.766Z,101042.63
2023-05-01T09:40:28.261Z,101037.63
2023-05-01T09:42:58.188Z,101041.22
2023-05-01T09:45:26.783Z,101037.47
2023-05-01T09:48:10.845Z,101039.38
2023-05-01T09:50:38.523Z,101036.25
2023-05-01T09:53:06.510Z,101031.09
2023-05-01T09:55:34.267Z,101026.63
2023-05-01T09:58:00.838Z,101024.34
2023-05-01T10:00:27.576Z,101025.84
2023-05-01T10:02:54.359Z,101023.19
2023-05-01T10:05:21.052Z,101022.50
2023-05-01T10:07:59.494Z,101014.13
2023-05-01T10:10:26.215Z,101017.78
2023-05-01T10:12:52.748Z,101023.25
2023-05-01T10:15:26.163Z,101014.84
2023-05-01T10:17:54.768Z,101019.69
2023-05-01T10:20:21.805Z,100998.38
2023-05-01T10:22:49.096Z,101008.84
2023-05-01T10:25:17.625Z,101023.59
2023-05-01T10:27:44.239Z,101011.28
2023-05-01T10:30:11.182Z,101017.84
2023-05-01T10:32:39.371Z,101017.63
2023-05-01T10:35:11.534Z,101018.75
2023-05-01T10:37:46.434Z,101019.88
2023-05-01T10:40:37.666Z,101025.81
2023-05-01T10:43:28.567Z,101015.91
2023-05-01T10:46:16.771Z,101006.25
2023-05-01T10:48:46.293Z,101012.09
2023-05-01T10:51:17.848Z,101008.88
2023-05-01T10:53:49.548Z,100995.59
2023-05-01T10:56:23.853Z,101002.41
2023-05-01T10:58:53.144Z,100997.78
2023-05-01T11:01:51.785Z,100990.31
2023-05-01T11:04:30.708Z,100986.41
2023-05-01T11:07:05.682Z,100993.22
2023-05-01T11:09:54.625Z,100988.38
2023-05-01T11:12:46.216Z,100986.59
2023-05-01T11:15:25.263Z,100975.72
2023-05-01T11:17:52.395Z,100976.56
2023-05-01T11:20:24.994Z,100977.56
2023-05-01T11:22:55.773Z,100971.41
2023-05-01T11:25:30.569Z,100964.91
2023-05-01T11:28:01.134Z,100972.69
2023-05-01T11:30:37.648Z,100964.28
2023-05-01T11:33:05.691Z,100963.28
2023-05-01T11:35:33.325Z,100963.09
2023-05-01T11:38:00.293Z,100969.75
2023-05-01T11:40:28.577Z,100964.53
2023-05-01T11:43:06.041Z,100964.03
2023-05-01T11:45:33.835Z,100961.53
2023-05-01T11:48:03.661Z,100951.13
2023-05-01T11:50:37.718Z,100950.28
2023-05-01T11:53:18.771Z,100946.41
2023-05-01T11:55:46.135Z,100958.91
2023-05-01T12:00:42.002Z,100941.63
2023-05-01T12:03:10.327Z,100940.59
2023-05-01T12:05:42.802Z,100944.84
2023-05-01T12:08:11.322Z,100935.97
2023-05-01T12:10:42.656Z,100936.50
2023-05-01T12:13:11.115Z,100934.06
2023-05-01T12:15:40.712Z,100937.84
2023-05-01T12:18:07.827Z,100939.38
2023-05-01T12:20:41.496Z,100931.84
2023-05-01T12:23:13.382Z,100934.13
2023-05-01T12:25:40.977Z,100937.34
2023-05-01T12:28:18.248Z,100933.59
2023-05-01T12:30:46.157Z,100929.66
2023-05-01T12:33:20.338Z,100928.09
2023-05-01T12:35:49.476Z,100927.28
2023-05-01T12:38:20.977Z,100921.72
2023-05-01T12:40:59.441Z,100926.00
2023-05-01T12:43:44.550Z,100926.34
2023-05-01T12:46:15.801Z,100930.06
2023-05-01T12:48:42.635Z,100917.72
2023-05-01T12:51:09.161Z,100925.81
2023-05-01T12:53:43.912Z,100921.88
2023-05-01T12:56:22.836Z,100921.44
2023-05-01T12:58:51.028Z,100905.19
2023-05-01T13:01:28.373Z,100906.25
2023-05-01T13:03:58.026Z,100905.97
2023-05-01T13:06:34.175Z,100902.19
2023-05-01T13:09:10.487Z,100899.63
2023-05-01T13:11:38.190Z,100897.75
2023-05-01T13:14:08.932Z,100903.13
2023-05-01T13:16:45.369Z,100905.78
2023-05-01T13:19:13.144Z,100898.13
2023-05-01T13:21:50.542Z,100888.69
2023-05-01T13:24:16.992Z,100891.72
2023-05-01T13:26:45.123Z,100875.06
2023-05-01T13:29:15.077Z,100880.47
2023-05-01T13:31:45.651Z,100871.66
2023-05-01T13:34:17.272Z,100884.47
2023-05-01T13:36:44.156Z,100875.19
2023-05-01T13:39:11.761Z,100870.44
2023-05-01T13:41:42.304Z,100870.81
2023-05-01T13:44:08.758Z,100870.59
2023-05-01T13:46:36.272Z,100872.56
2023-05-01T13:49:07.975Z,100872.00
2023-05-01T13:51:37.874Z,100879.69
2023-05-01T13:54:04.698Z,100868.97
2023-05-01T13:56:32.377Z,100873.81
2023-05-01T13:59:01.964Z,100884.94
2023-05-01T14:01:28.391Z,100870.88
2023-05-01T14:04:00.292Z,100866.69
2023-05-01T14:06:28.658Z,100868.28
2023-05-01T14:08:58.493Z,100879.59
2023-05-01T14:11:24.976Z,100877.88
2023-05-01T14:13:51.533Z,100863.44
2023-05-01T14:16:25.038Z,100881.28
2023-05-01T14:18:54.787Z,100874.47
2023-05-01T14:21:22.778Z,100884.94
2023-05-01T14:23:49.419Z,100873.53
2023-05-01T14:26:18.133Z,100879.00
2023-05-01T14:28:46.330Z,100866.06
2023-05-01T14:31:23.853Z,100877.09
2023-05-01T14:34:02.362Z,100880.13
2023-05-01T14:36:33.192Z,100873.19
2023-05-01T14:39:01.396Z,100878.19
2023-05-01T14:41:29.410Z,100873.72
2023-05-01T14:43:56.421Z,100876.72
2023-05-01T14:46:29.153Z,100859.56
2023-05-01T14:48:55.717Z,100879.13
2023-05-01T14:51:22.586Z,100883.50
2023-05-01T14:53:49.036Z,100883.25
2023-05-01T14:56:15.606Z,100891.31
2023-05-01T14:58:42.221Z,100875.72
2023-05-01T15:01:08.660Z,100890.47
2023-05-01T15:03:42.160Z,100882.81
2023-05-01T15:06:09.425Z,100888.84
2023-05-01T15:08:36.477Z,100888.94
2023-05-01T15:11:02.889Z,100886.94
2023-05-01T15:13:29.246Z,100883.81
2023-05-01T15:15:56.097Z,100882.28
2023-05-01T15:18:22.678Z,100884.38
2023-05-01T15:20:49.128Z,100879.47
2023-05-01T15:23:15.457Z,100880.50
2023-05-01T15:25:44.085Z,100876.84
2023-05-01T15:28:10.611Z,100877.50
2023-05-01T15:30:36.960Z,100879.19
2023-05-01T15:33:05.732Z,100883.91
2023-05-01T15:35:32.659Z,100885.69
2023-05-01T15:37:58.954Z,100880.44
2023-05-01T15:40:25.280Z,100885.81
2023-05-01T15:42:51.860Z,100885.69
2023-05-01T15:45:18.297Z,100882.03
2023-05-01T15:47:44.928Z,100876.16
2023-05-01T15:50:11.972Z,100874.94
2023-05-01T15:52:38.585Z,100875.22
2023-05-01T15:55:05.528Z,100882.38
2023-05-01T15:57:32.660Z,100877.16
2023-05-01T15:59:59.238Z,100882.03
2023-05-01T16:02:29.259Z,100878.94
2023-05-01T16:04:55.653Z,100878.97
2023-05-01T16:07:22.015Z,100882.09
2023-05-01T16:09:49.145Z,100888.78
2023-05-01T16:12:15.502Z,100889.94
2023-05-01T16:14:42.187Z,100887.34
2023-05-01T16:17:08.824Z,100895.63
2023-05-01T16:19:38.307Z,100891.31
2023-05-01T16:22:05.645Z,100906.66
2023-05-01T16:24:35.347Z,100905.34
2023-05-01T16:27:02.066Z,100917.53
2023-05-01T16:29:28.794Z,100918.13
2023-05-01T16:31:55.131Z,100921.03
2023-05-01T16:34:23.807Z,100913.03
2023-05-01T16:36:50.182Z,100909.22
2023-05-01T16:39:19.054Z,100913.19
2023-05-01T16:41:46.253Z,100918.50
2023-05-01T16:44:13.196Z,100927.03
2023-05-01T16:46:41.752Z,100929.59
2023-05-01T16:49:11.603Z,100933.53
2023-05-01T16:51:38.786Z,100934.81
2023-05-01T16:54:05.134Z,100938.25
2023-05-01T16:56:31.577Z,100943.22
2023-05-01T16:58:58.685Z,100949.03
2023-05-01T17:01:25.492Z,100943.47
2023-05-01T17:03:51.909Z,100944.72
2023-05-01T17:11:45.131Z,100966.25
2023-05-01T17:14:11.844Z,100973.53
2023-05-01T17:16:38.251Z,100978.47
2023-05-01T17:19:08.830Z,100974.69
2023-05-01T17:21:35.579Z,100982.22
2023-05-01T17:24:02.610Z,100988.03
2023-05-01T17:26:28.960Z,100984.00
2023-05-01T17:28:55.263Z,100988.00
2023-05-01T17:31:22.683Z,101002.34
2023-05-01T17:33:49.319Z,101005.31
2023-05-01T17:36:15.730Z,101007.78
2023-05-01T17:38:42.119Z,101008.84
2023-05-01T17:41:08.422Z,101012.91
2023-05-01T17:43:34.814Z,101023.09
2023-05-01T17:46:01.321Z,101030.84
2023-05-01T17:48:27.728Z,101035.53
2023-05-01T17:50:55.784Z,101040.41
2023-05-01T17:53:23.268Z,101050.97
2023-05-01T17:55:49.714Z,101043.66
2023-05-01T17:58:16.201Z,101037.75
2023-05-01T18:00:42.597Z,101045.91
2023-05-01T18:03:09.028Z,101041.19
2023-05-01T18:05:35.609Z,101048.28
2023-05-01T18:08:02.087Z,101052.94
2023-05-01T18:10:31.173Z,101057.53
2023-05-01T18:12:58.194Z,101057.13
2023-05-01T18:15:24.727Z,101059.16
2023-05-01T18:17:51.540Z,101065.41
2023-05-01T18:20:17.925Z,101062.34
2023-05-01T18:22:44.493Z,101065.34
2023-05-01T18:25:11.206Z,101067.16
2023-05-01T18:27:38.188Z,101071.63
2023-05-01T18:30:05.186Z,101073.44
2023-05-01T18:32:46.377Z,101072.03
2023-05-01T18:35:14.417Z,101076.25
2023-05-01T18:37:42.434Z,101083.13
2023-05-01T18:40:09.693Z,101086.94
2023-05-01T18:42:36.298Z,101087.13
2023-05-01T18:45:03.985Z,101090.16
2023-05-01T18:47:32.310Z,101090.53
2023-05-01T18:49:59.213Z,101085.63
2023-05-01T18:52:25.941Z,101086.63
2023-05-01T18:54:52.262Z,101085.63
2023-05-01T18:57:18.761Z,101092.28
2023-05-01T18:59:45.280Z,101089.63
2023-05-01T19:02:11.760Z,101069.38
2023-05-01T19:04:49.377Z,101091.16
2023-05-01T19:07:22.857Z,101090.72
2023-05-01T19:09:49.437Z,101102.03
2023-05-01T19:12:16.452Z,101100.00
2023-05-01T19:14:42.837Z,101105.69
2023-05-01T19:17:09.205Z,101110.56
2023-05-01T19:19:35.496Z,101115.03
2023-05-01T19:22:01.771Z,101121.31
2023-05-01T19:24:28.185Z,101130.69
2023-05-01T19:26:54.603Z,101137.75
2023-05-01T19:29:23.725Z,101133.47
2023-05-01T19:31:50.723Z,101138.19
2023-05-01T19:34:17.083Z,101141.34
2023-05-01T19:36:43.451Z,101139.78
2023-05-01T19:39:10.174Z,101147.00
2023-05-01T19:41:36.974Z,101154.38
2023-05-01T19:44:03.418Z,101149.91
2023-05-01T19:46:29.860Z,101157.09
2023-05-01T19:48:56.252Z,101154.69
2023-05-01T19:51:22.706Z,101159.16
2023-05-01T19:53:49.034Z,101165.47
2023-05-01T19:56:15.351Z,101164.28
2023-05-01T19:58:41.980Z,101164.81
2023-05-01T20:01:11.779Z,101171.31
2023-05-01T20:03:38.503Z,101175.59
2023-05-01T20:06:06.303Z,101171.09
2023-05-01T20:08:33.199Z,101168.03
2023-05-01T20:11:00.128Z,101168.84
2023-05-01T20:13:26.765Z,101170.69
2023-05-01T20:15:53.078Z,101168.03
2023-05-01T20:18:19.500Z,101180.44
2023-05-01T20:20:45.832Z,101178.81
2023-05-01T20:23:12.988Z,101180.84
2023-05-01T20:25:39.785Z,101180.63
2023-05-01T20:28:08.849Z,101176.75
2023-05-01T20:30:40.003Z,101179.59
2023-05-01T20:33:07.775Z,101180.19
2023-05-01T20:35:34.669Z,101183.47
2023-05-01T20:38:01.987Z,101183.47
2023-05-01T20:40:28.972Z,101195.59
2023-05-01T20:42:55.565Z,101189.28
2023-05-01T20:45:22.106Z,101197.97
2023-05-01T20:47:48.827Z,101192.06
2023-05-01T20:50:17.159Z,101185.88
2023-05-01T20:52:46.492Z,101195.97
2023-05-01T20:55:14.039Z,101204.66
2023-05-01T20:57:40.481Z,101178.28
2023-05-01T21:00:08.006Z,101199.38
2023-05-01T21:02:37.376Z,101206.00
2023-05-01T21:05:04.050Z,101205.34
2023-05-01T21:07:30.550Z,101206.97
2023-05-01T21:09:57.096Z,101210.31
2023-05-01T21:12:23.548Z,101209.03
2023-05-01T21:14:50.097Z,101224.56
2023-05-01T21:17:18.188Z,101230.78
2023-05-01T21:19:46.171Z,101226.19
2023-05-01T21:22:17.373Z,101224.81
2023-05-01T21:24:45.144Z,101220.91
2023-05-01T21:27:12.345Z,101235.44
2023-05-01T21:29:39.817Z,101234.56
2023-05-01T21:32:07.201Z,101234.56
2023-05-01T21:34:33.927Z,101232.28
2023-05-01T21:37:00.308Z,101246.72
2023-05-01T21:39:26.781Z,101239.91
2023-05-01T21:41:53.108Z,101244.09
2023-05-01T21:44:19.469Z,101248.72
2023-05-01T21:46:45.797Z,101254.34
2023-05-01T21:49:12.551Z,101247.81
2023-05-01T21:51:42.275Z,101253.72
2023-05-01T21:54:08.633Z,101249.25
2023-05-01T21:56:34.989Z,101250.41
2023-05-01T21:59:02.005Z,101248.44
2023-05-01T22:01:28.480Z,101260.25
2023-05-01T22:03:54.920Z,101256.97
2023-05-01T22:06:24.456Z,101256.06
2023-05-01T22:08:51.813Z,101260.13
2023-05-01T22:11:18.215Z,101255.94
2023-05-01T22:13:44.951Z,101260.88
2023-05-01T22:16:13.777Z,101260.75
2023-05-01T22:18:40.619Z,101264.84
2023-05-01T22:21:07.032Z,101262.56
2023-05-01T22:23:33.330Z,101272.16
2023-05-01T22:26:00.294Z,101276.19
2023-05-01T22:28:26.940Z,101271.28
2023-05-01T22:30:53.262Z,101279.19
2023-05-01T22:33:19.606Z,101280.53
2023-05-01T22:35:46.189Z,101264.72
2023-05-01T22:38:12.541Z,101283.41
2023-05-01T22:40:38.837Z,101282.41
2023-05-01T22:43:05.908Z,101286.72
2023-05-01T22:45:32.234Z,101290.53
2023-05-01T22:47:58.604Z,101299.44
2023-05-01T22:50:24.973Z,101293.75
2023-05-01T22:52:51.532Z,101304.31
2023-05-01T22:55:17.857Z,101306.00
2023-05-01T22:57:44.569Z,101308.31
2023-05-01T23:00:12.110Z,101315.69
2023-05-01T23:02:38.639Z,101323.75
2023-05-01T23:05:06.824Z,101319.03
2023-05-01T23:07:33.161Z,101318.59
2023-05-01T23:10:00.457Z,101323.34
2023-05-01T23:12:27.742Z,101327.34
2023-05-01T23:14:55.096Z,101331.00
2023-05-01T23:17:21.820Z,101327.75
2023-05-01T23:19:50.634Z,101329.41
2023-05-01T23:22:18.013Z,101335.34
2023-05-01T23:24:51.000Z,101342.56
2023-05-01T23:27:18.324Z,101347.81
2023-05-01T23:29:57.917Z,101336.84
2023-05-01T23:32:29.958Z,101339.81
2023-05-01T23:35:03.303Z,101341.91
2023-05-01T23:37:29.690Z,101338.66
2023-05-01T23:39:58.831Z,101334.53
2023-05-01T23:42:25.793Z,101329.47
2023-05-01T23:44:52.415Z,101338.97
2023-05-01T23:47:19.283Z,101336.19
2023-05-01T23:49:46.524Z,101339.81
2023-05-01T23:52:13.064Z,101349.78
2023-05-01T23:54:39.461Z,101357.31
2023-05-01T23:57:05.910Z,101366.81
2023-05-01T23:59:32.353Z,101350.91
